sensor_id;sensor_type;location;lat;lon;timestamp;temperature;humidity
46898;DHT22;32646;50.958;6.258;2023-07-13T00:00:56;14.80;99.90
46898;DHT22;32646;50.958;6.258;2023-07-13T00:03:23;14.80;99.90
46898;DHT22;32646;50.958;6.258;2023-07-13T00:06:00;14.90;99.90
46898;DHT22;32646;50.958;6.258;2023-07-13T00:08:30;15.00;99.90
46898;DHT22;32646;50.958;6.258;2023-07-13T00:10:57;15.00;99.90
46898;DHT22;32646;50.958;6.258;2023-07-13T00:13:24;15.00;99.90
46898;DHT22;32646;50.958;6.258;2023-07-13T00:15:50;14.90;99.90
46898;DHT22;32646;50.958;6.258;2023-07-13T00:18:17;14.90;99.90
46898;DHT22;32646;50.958;6.258;2023-07-13T00:20:43;14.90;99.90
46898;DHT22;32646;50.958;6.258;2023-07-13T00:23:10;14.80;99.90
46898;DHT22;32646;50.958;6.258;2023-07-13T00:25:37;14.80;99.90
46898;DHT22;32646;50.958;6.258;2023-07-13T00:28:03;14.70;99.90
46898;DHT22;32646;50.958;6.258;2023-07-13T00:30:30;14.70;99.90
46898;DHT22;32646;50.958;6.258;2023-07-13T00:32:56;14.70;99.90
46898;DHT22;32646;50.958;6.258;2023-07-13T00:35:43;14.70;99.90
46898;DHT22;32646;50.958;6.258;2023-07-13T00:38:11;14.80;99.90
46898;DHT22;32646;50.958;6.258;2023-07-13T00:40:37;14.70;99.90
46898;DHT22;32646;50.958;6.258;2023-07-13T00:43:11;14.80;99.90
46898;DHT22;32646;50.958;6.258;2023-07-13T00:48:12;15.00;99.90
46898;DHT22;32646;50.958;6.258;2023-07-13T00:50:41;15.10;99.90
46898;DHT22;32646;50.958;6.258;2023-07-13T00:53:08;15.20;99.90
46898;DHT22;32646;50.958;6.258;2023-07-13T00:55:35;15.30;99.90
46898;DHT22;32646;50.958;6.258;2023-07-13T00:58:02;15.30;99.90
46898;DHT22;32646;50.958;6.258;2023-07-13T01:00:30;15.20;99.90
46898;DHT22;32646;50.958;6.258;2023-07-13T01:02:57;15.20;99.90
46898;DHT22;32646;50.958;6.258;2023-07-13T01:05:25;15.20;99.90
46898;DHT22;32646;50.958;6.258;2023-07-13T01:07:52;15.10;99.90
46898;DHT22;32646;50.958;6.258;2023-07-13T01:10:23;15.10;99.90
46898;DHT22;32646;50.958;6.258;2023-07-13T01:12:49;15.00;99.90
46898;DHT22;32646;50.958;6.258;2023-07-13T01:15:42;14.90;99.90
46898;DHT22;32646;50.958;6.258;2023-07-13T01:18:12;14.80;99.90
46898;DHT22;32646;50.958;6.258;2023-07-13T01:20:40;14.80;99.90
46898;DHT22;32646;50.958;6.258;2023-07-13T01:23:10;14.70;99.90
46898;DHT22;32646;50.958;6.258;2023-07-13T01:25:37;14.70;99.90
46898;DHT22;32646;50.958;6.258;2023-07-13T01:28:06;14.80;99.90
46898;DHT22;32646;50.958;6.258;2023-07-13T01:30:33;14.70;99.90
46898;DHT22;32646;50.958;6.258;2023-07-13T01:32:59;14.80;99.90
46898;DHT22;32646;50.958;6.258;2023-07-13T01:35:26;14.80;99.90
46898;DHT22;32646;50.958;6.258;2023-07-13T01:37:53;14.70;99.90
46898;DHT22;32646;50.958;6.258;2023-07-13T01:40:20;14.70;99.90
46898;DHT22;32646;50.958;6.258;2023-07-13T01:42:47;14.80;99.90
46898;DHT22;32646;50.958;6.258;2023-07-13T01:45:14;14.80;99.90
46898;DHT22;32646;50.958;6.258;2023-07-13T01:47:40;14.80;99.90
46898;DHT22;32646;50.958;6.258;2023-07-13T01:50:07;14.80;99.90
46898;DHT22;32646;50.958;6.258;2023-07-13T01:52:34;14.90;99.90
46898;DHT22;32646;50.958;6.258;2023-07-13T01:55:01;14.90;99.90
46898;DHT22;32646;50.958;6.258;2023-07-13T01:57:28;14.90;99.90
46898;DHT22;32646;50.958;6.258;2023-07-13T01:59:54;14.90;99.90
46898;DHT22;32646;50.958;6.258;2023-07-13T02:02:21;14.80;99.90
46898;DHT22;32646;50.958;6.258;2023-07-13T02:04:47;14.80;99.90
46898;DHT22;32646;50.958;6.258;2023-07-13T02:07:14;14.80;99.90
46898;DHT22;32646;50.958;6.258;2023-07-13T02:09:41;14.80;99.90
46898;DHT22;32646;50.958;6.258;2023-07-13T02:12:08;14.70;99.90
46898;DHT22;32646;50.958;6.258;2023-07-13T02:14:35;14.50;99.90
46898;DHT22;32646;50.958;6.258;2023-07-13T02:17:01;14.30;99.90
46898;DHT22;32646;50.958;6.258;2023-07-13T02:19:28;14.30;99.90
46898;DHT22;32646;50.958;6.258;2023-07-13T02:21:54;14.20;99.90
46898;DHT22;32646;50.958;6.258;2023-07-13T02:24:21;14.10;99.90
46898;DHT22;32646;50.958;6.258;2023-07-13T02:26:48;14.10;99.90
46898;DHT22;32646;50.958;6.258;2023-07-13T02:29:14;14.10;99.90
46898;DHT22;32646;50.958;6.258;2023-07-13T02:31:41;14.20;99.90
46898;DHT22;32646;50.958;6.258;2023-07-13T02:34:08;14.20;99.90
46898;DHT22;32646;50.958;6.258;2023-07-13T02:36:34;14.20;99.90
46898;DHT22;32646;50.958;6.258;2023-07-13T02:39:03;14.10;99.90
46898;DHT22;32646;50.958;6.258;2023-07-13T02:41:30;14.10;99.90
46898;DHT22;32646;50.958;6.258;2023-07-13T02:43:58;14.10;99.90
46898;DHT22;32646;50.958;6.258;2023-07-13T02:46:25;14.20;99.90
46898;DHT22;32646;50.958;6.258;2023-07-13T02:48:52;14.20;99.90
46898;DHT22;32646;50.958;6.258;2023-07-13T02:51:18;14.20;99.90
46898;DHT22;32646;50.958;6.258;2023-07-13T02:53:45;14.30;99.90
46898;DHT22;32646;50.958;6.258;2023-07-13T02:56:11;14.30;99.90
46898;DHT22;32646;50.958;6.258;2023-07-13T02:58:42;14.30;99.90
46898;DHT22;32646;50.958;6.258;2023-07-13T03:01:10;14.20;99.90
46898;DHT22;32646;50.958;6.258;2023-07-13T03:03:38;14.20;99.90
46898;DHT22;32646;50.958;6.258;2023-07-13T03:06:05;14.20;99.90
46898;DHT22;32646;50.958;6.258;2023-07-13T03:08:31;14.20;99.90
46898;DHT22;32646;50.958;6.258;2023-07-13T03:11:03;14.10;99.90
46898;DHT22;32646;50.958;6.258;2023-07-13T03:13:29;14.10;99.90
46898;DHT22;32646;50.958;6.258;2023-07-13T03:15:56;14.10;99.90
46898;DHT22;32646;50.958;6.258;2023-07-13T03:18:23;14.10;99.90
46898;DHT22;32646;50.958;6.258;2023-07-13T03:20:50;14.00;99.90
46898;DHT22;32646;50.958;6.258;2023-07-13T03:23:17;13.90;99.90
46898;DHT22;32646;50.958;6.258;2023-07-13T03:25:44;14.00;99.90
46898;DHT22;32646;50.958;6.258;2023-07-13T03:28:11;14.10;99.90
46898;DHT22;32646;50.958;6.258;2023-07-13T03:30:38;14.20;99.90
46898;DHT22;32646;50.958;6.258;2023-07-13T03:33:05;14.20;99.90
46898;DHT22;32646;50.958;6.258;2023-07-13T03:35:34;14.30;99.90
46898;DHT22;32646;50.958;6.258;2023-07-13T03:38:01;14.30;99.90
46898;DHT22;32646;50.958;6.258;2023-07-13T03:40:28;14.30;99.90
46898;DHT22;32646;50.958;6.258;2023-07-13T03:42:54;14.30;99.90
46898;DHT22;32646;50.958;6.258;2023-07-13T03:45:21;14.20;99.90
46898;DHT22;32646;50.958;6.258;2023-07-13T03:47:47;14.30;99.90
46898;DHT22;32646;50.958;6.258;2023-07-13T03:50:14;14.30;99.90
46898;DHT22;32646;50.958;6.258;2023-07-13T03:52:41;14.30;99.90
46898;DHT22;32646;50.958;6.258;2023-07-13T03:55:07;14.40;99.90
46898;DHT22;32646;50.958;6.258;2023-07-13T03:57:34;14.40;99.90
46898;DHT22;32646;50.958;6.258;2023-07-13T04:00:04;14.40;99.90
46898;DHT22;32646;50.958;6.258;2023-07-13T04:02:30;14.40;99.90
46898;DHT22;32646;50.958;6.258;2023-07-13T04:04:57;14.40;99.90
46898;DHT22;32646;50.958;6.258;2023-07-13T04:07:23;14.40;99.90
46898;DHT22;32646;50.958;6.258;2023-07-13T04:09:50;14.50;99.90
46898;DHT22;32646;50.958;6.258;2023-07-13T04:12:17;14.50;99.90
46898;DHT22;32646;50.958;6.258;2023-07-13T04:14:43;14.50;99.90
46898;DHT22;32646;50.958;6.258;2023-07-13T04:17:10;14.60;99.90
46898;DHT22;32646;50.958;6.258;2023-07-13T04:19:36;14.60;99.90
46898;DHT22;32646;50.958;6.258;2023-07-13T04:22:03;14.60;99.90
46898;DHT22;32646;50.958;6.258;2023-07-13T04:24:30;14.60;99.90
46898;DHT22;32646;50.958;6.258;2023-07-13T04:26:56;14.60;99.90
46898;DHT22;32646;50.958;6.258;2023-07-13T04:29:23;14.60;99.90
46898;DHT22;32646;50.958;6.258;2023-07-13T04:31:49;14.60;99.90
46898;DHT22;32646;50.958;6.258;2023-07-13T04:34:16;14.70;99.90
46898;DHT22;32646;50.958;6.258;2023-07-13T04:36:43;14.80;99.90
46898;DHT22;32646;50.958;6.258;2023-07-13T04:39:09;14.80;99.90
46898;DHT22;32646;50.958;6.258;2023-07-13T04:41:36;14.80;99.90
46898;DHT22;32646;50.958;6.258;2023-07-13T04:44:02;14.90;99.90
46898;DHT22;32646;50.958;6.258;2023-07-13T04:46:29;14.90;99.90
46898;DHT22;32646;50.958;6.258;2023-07-13T04:48:56;15.00;99.90
46898;DHT22;32646;50.958;6.258;2023-07-13T04:51:23;14.90;99.90
46898;DHT22;32646;50.958;6.258;2023-07-13T04:53:49;15.00;99.90
46898;DHT22;32646;50.958;6.258;2023-07-13T04:56:22;15.00;99.90
46898;DHT22;32646;50.958;6.258;2023-07-13T04:58:48;15.10;99.90
46898;DHT22;32646;50.958;6.258;2023-07-13T05:01:15;15.20;99.90
46898;DHT22;32646;50.958;6.258;2023-07-13T05:03:42;15.20;99.90
46898;DHT22;32646;50.958;6.258;2023-07-13T05:06:08;15.20;99.90
46898;DHT22;32646;50.958;6.258;2023-07-13T05:08:35;15.30;99.90
46898;DHT22;32646;50.958;6.258;2023-07-13T05:11:03;15.40;99.90
46898;DHT22;32646;50.958;6.258;2023-07-13T05:13:30;15.50;99.90
46898;DHT22;32646;50.958;6.258;2023-07-13T05:15:59;15.50;99.90
46898;DHT22;32646;50.958;6.258;2023-07-13T05:18:26;15.60;99.90
46898;DHT22;32646;50.958;6.258;2023-07-13T05:21:04;15.60;99.90
46898;DHT22;32646;50.958;6.258;2023-07-13T05:23:32;15.60;99.90
46898;DHT22;32646;50.958;6.258;2023-07-13T05:25:59;15.60;99.90
46898;DHT22;32646;50.958;6.258;2023-07-13T05:28:27;15.70;99.90
46898;DHT22;32646;50.958;6.258;2023-07-13T05:30:55;15.80;99.90
46898;DHT22;32646;50.958;6.258;2023-07-13T05:33:22;15.90;99.90
46898;DHT22;32646;50.958;6.258;2023-07-13T05:35:49;15.90;99.90
46898;DHT22;32646;50.958;6.258;2023-07-13T05:38:15;15.90;99.90
46898;DHT22;32646;50.958;6.258;2023-07-13T05:40:43;15.90;99.90
46898;DHT22;32646;50.958;6.258;2023-07-13T05:43:10;15.90;99.90
46898;DHT22;32646;50.958;6.258;2023-07-13T05:45:37;15.80;99.90
46898;DHT22;32646;50.958;6.258;2023-07-13T05:48:04;15.80;99.90
46898;DHT22;32646;50.958;6.258;2023-07-13T05:50:31;15.90;99.90
46898;DHT22;32646;50.958;6.258;2023-07-13T05:52:57;15.80;99.90
46898;DHT22;32646;50.958;6.258;2023-07-13T05:55:24;15.90;99.90
46898;DHT22;32646;50.958;6.258;2023-07-13T05:57:51;15.90;99.90
46898;DHT22;32646;50.958;6.258;2023-07-13T06:00:17;16.10;99.90
46898;DHT22;32646;50.958;6.258;2023-07-13T06:02:44;16.10;99.90
46898;DHT22;32646;50.958;6.258;2023-07-13T06:05:11;16.30;99.90
46898;DHT22;32646;50.958;6.258;2023-07-13T06:07:38;16.30;99.90
46898;DHT22;32646;50.958;6.258;2023-07-13T06:10:05;16.40;99.90
46898;DHT22;32646;50.958;6.258;2023-07-13T06:12:31;16.60;99.90
46898;DHT22;32646;50.958;6.258;2023-07-13T06:14:58;16.60;99.90
46898;DHT22;32646;50.958;6.258;2023-07-13T06:17:24;16.70;99.90
46898;DHT22;32646;50.958;6.258;2023-07-13T06:19:51;16.70;99.90
46898;DHT22;32646;50.958;6.258;2023-07-13T06:22:18;16.90;99.90
46898;DHT22;32646;50.958;6.258;2023-07-13T06:24:44;17.00;99.90
46898;DHT22;32646;50.958;6.258;2023-07-13T06:27:11;16.90;99.90
46898;DHT22;32646;50.958;6.258;2023-07-13T06:29:37;16.90;99.90
46898;DHT22;32646;50.958;6.258;2023-07-13T06:32:04;16.90;99.90
46898;DHT22;32646;50.958;6.258;2023-07-13T06:34:31;17.00;99.90
46898;DHT22;32646;50.958;6.258;2023-07-13T06:36:58;17.10;99.90
46898;DHT22;32646;50.958;6.258;2023-07-13T06:39:24;17.00;99.90
46898;DHT22;32646;50.958;6.258;2023-07-13T06:41:51;17.10;99.90
46898;DHT22;32646;50.958;6.258;2023-07-13T06:44:17;17.20;99.90
46898;DHT22;32646;50.958;6.258;2023-07-13T06:46:44;17.10;99.90
46898;DHT22;32646;50.958;6.258;2023-07-13T06:49:11;17.10;99.90
46898;DHT22;32646;50.958;6.258;2023-07-13T06:51:37;17.00;99.90
46898;DHT22;32646;50.958;6.258;2023-07-13T06:54:04;17.10;99.90
46898;DHT22;32646;50.958;6.258;2023-07-13T06:56:30;17.00;99.90
46898;DHT22;32646;50.958;6.258;2023-07-13T06:58:57;17.00;99.90
46898;DHT22;32646;50.958;6.258;2023-07-13T07:01:23;17.10;99.90
46898;DHT22;32646;50.958;6.258;2023-07-13T07:03:50;17.20;99.90
46898;DHT22;32646;50.958;6.258;2023-07-13T07:06:21;17.20;99.90
46898;DHT22;32646;50.958;6.258;2023-07-13T07:08:49;17.20;99.90
46898;DHT22;32646;50.958;6.258;2023-07-13T07:11:21;17.30;99.90
46898;DHT22;32646;50.958;6.258;2023-07-13T07:13:49;17.40;99.90
46898;DHT22;32646;50.958;6.258;2023-07-13T07:16:15;17.60;99.90
46898;DHT22;32646;50.958;6.258;2023-07-13T07:18:42;17.60;99.90
46898;DHT22;32646;50.958;6.258;2023-07-13T07:21:09;17.60;99.90
46898;DHT22;32646;50.958;6.258;2023-07-13T07:23:36;17.40;99.90
46898;DHT22;32646;50.958;6.258;2023-07-13T07:26:03;17.40;99.90
46898;DHT22;32646;50.958;6.258;2023-07-13T07:28:30;17.60;99.90
46898;DHT22;32646;50.958;6.258;2023-07-13T07:31:00;17.50;99.90
46898;DHT22;32646;50.958;6.258;2023-07-13T07:33:29;17.70;99.90
46898;DHT22;32646;50.958;6.258;2023-07-13T07:35:56;17.70;99.90
46898;DHT22;32646;50.958;6.258;2023-07-13T07:38:25;17.70;99.90
46898;DHT22;32646;50.958;6.258;2023-07-13T07:40:52;17.70;99.90
46898;DHT22;32646;50.958;6.258;2023-07-13T07:43:22;17.80;99.90
46898;DHT22;32646;50.958;6.258;2023-07-13T07:45:48;18.00;99.90
46898;DHT22;32646;50.958;6.258;2023-07-13T07:48:15;18.10;99.90
46898;DHT22;32646;50.958;6.258;2023-07-13T07:50:42;17.90;99.90
46898;DHT22;32646;50.958;6.258;2023-07-13T07:53:10;18.00;99.90
46898;DHT22;32646;50.958;6.258;2023-07-13T07:55:37;18.20;99.90
46898;DHT22;32646;50.958;6.258;2023-07-13T07:58:06;18.20;99.90
46898;DHT22;32646;50.958;6.258;2023-07-13T08:00:53;18.20;99.90
46898;DHT22;32646;50.958;6.258;2023-07-13T08:03:22;18.10;99.90
46898;DHT22;32646;50.958;6.258;2023-07-13T08:05:55;18.00;99.90
46898;DHT22;32646;50.958;6.258;2023-07-13T08:08:25;18.10;99.90
46898;DHT22;32646;50.958;6.258;2023-07-13T08:10:52;18.20;99.90
46898;DHT22;32646;50.958;6.258;2023-07-13T08:13:23;18.20;99.90
46898;DHT22;32646;50.958;6.258;2023-07-13T08:15:50;18.40;99.90
46898;DHT22;32646;50.958;6.258;2023-07-13T08:18:17;18.40;99.90
46898;DHT22;32646;50.958;6.258;2023-07-13T08:20:43;18.60;99.90
46898;DHT22;32646;50.958;6.258;2023-07-13T08:23:10;18.70;98.80
46898;DHT22;32646;50.958;6.258;2023-07-13T08:25:37;18.70;97.20
46898;DHT22;32646;50.958;6.258;2023-07-13T08:28:04;18.70;99.70
46898;DHT22;32646;50.958;6.258;2023-07-13T08:30:30;18.80;98.10
46898;DHT22;32646;50.958;6.258;2023-07-13T08:32:57;18.90;97.00
46898;DHT22;32646;50.958;6.258;2023-07-13T08:35:24;18.90;97.70
46898;DHT22;32646;50.958;6.258;2023-07-13T08:37:51;19.20;97.90
46898;DHT22;32646;50.958;6.258;2023-07-13T08:40:19;19.40;97.30
46898;DHT22;32646;50.958;6.258;2023-07-13T08:42:55;19.40;95.30
46898;DHT22;32646;50.958;6.258;2023-07-13T08:48:05;19.60;94.10
46898;DHT22;32646;50.958;6.258;2023-07-13T08:50:49;19.60;94.60
46898;DHT22;32646;50.958;6.258;2023-07-13T08:53:49;19.60;95.50
46898;DHT22;32646;50.958;6.258;2023-07-13T08:56:29;19.70;94.30
46898;DHT22;32646;50.958;6.258;2023-07-13T08:58:57;19.80;93.60
46898;DHT22;32646;50.958;6.258;2023-07-13T09:04:23;20.70;84.80
46898;DHT22;32646;50.958;6.258;2023-07-13T09:07:07;20.90;84.60
46898;DHT22;32646;50.958;6.258;2023-07-13T09:10:05;21.00;81.20
46898;DHT22;32646;50.958;6.258;2023-07-13T09:13:00;20.20;88.80
46898;DHT22;32646;50.958;6.258;2023-07-13T09:15:35;20.50;92.00
46898;DHT22;32646;50.958;6.258;2023-07-13T09:18:27;20.90;87.80
46898;DHT22;32646;50.958;6.258;2023-07-13T09:21:05;21.10;82.20
46898;DHT22;32646;50.958;6.258;2023-07-13T09:23:35;21.50;82.20
46898;DHT22;32646;50.958;6.258;2023-07-13T09:26:12;21.00;80.70
46898;DHT22;32646;50.958;6.258;2023-07-13T09:28:44;20.60;87.20
46898;DHT22;32646;50.958;6.258;2023-07-13T09:31:28;20.60;87.30
46898;DHT22;32646;50.958;6.258;2023-07-13T09:33:57;20.60;90.10
46898;DHT22;32646;50.958;6.258;2023-07-13T09:36:32;21.40;85.10
46898;DHT22;32646;50.958;6.258;2023-07-13T09:39:02;21.90;74.50
46898;DHT22;32646;50.958;6.258;2023-07-13T09:44:34;21.40;78.70
46898;DHT22;32646;50.958;6.258;2023-07-13T09:47:01;22.10;73.60
46898;DHT22;32646;50.958;6.258;2023-07-13T09:49:31;21.90;71.40
46898;DHT22;32646;50.958;6.258;2023-07-13T09:52:05;22.00;73.20
46898;DHT22;32646;50.958;6.258;2023-07-13T09:54:34;22.20;73.80
46898;DHT22;32646;50.958;6.258;2023-07-13T09:57:03;21.80;76.60
46898;DHT22;32646;50.958;6.258;2023-07-13T09:59:37;21.90;72.70
46898;DHT22;32646;50.958;6.258;2023-07-13T10:05:31;22.00;77.50
46898;DHT22;32646;50.958;6.258;2023-07-13T10:07:51;22.90;72.10
46898;DHT22;32646;50.958;6.258;2023-07-13T10:10:21;23.20;69.70
46898;DHT22;32646;50.958;6.258;2023-07-13T10:12:49;22.70;68.20
46898;DHT22;32646;50.958;6.258;2023-07-13T10:15:19;23.00;71.50
46898;DHT22;32646;50.958;6.258;2023-07-13T10:17:51;22.90;66.90
46898;DHT22;32646;50.958;6.258;2023-07-13T10:20:20;23.10;66.60
46898;DHT22;32646;50.958;6.258;2023-07-13T10:22:59;22.90;69.60
46898;DHT22;32646;50.958;6.258;2023-07-13T10:25:31;22.30;71.60
46898;DHT22;32646;50.958;6.258;2023-07-13T10:30:40;22.00;69.70
46898;DHT22;32646;50.958;6.258;2023-07-13T10:33:11;22.10;70.40
46898;DHT22;32646;50.958;6.258;2023-07-13T10:35:42;21.80;71.80
46898;DHT22;32646;50.958;6.258;2023-07-13T10:38:15;22.10;71.00
46898;DHT22;32646;50.958;6.258;2023-07-13T10:43:39;23.00;68.40
46898;DHT22;32646;50.958;6.258;2023-07-13T10:46:12;22.70;67.40
46898;DHT22;32646;50.958;6.258;2023-07-13T10:48:42;22.40;66.40
46898;DHT22;32646;50.958;6.258;2023-07-13T10:51:12;22.10;68.70
46898;DHT22;32646;50.958;6.258;2023-07-13T10:53:39;22.40;70.90
46898;DHT22;32646;50.958;6.258;2023-07-13T10:56:27;22.20;68.70
46898;DHT22;32646;50.958;6.258;2023-07-13T11:01:48;24.20;62.40
46898;DHT22;32646;50.958;6.258;2023-07-13T11:04:15;23.70;60.00
46898;DHT22;32646;50.958;6.258;2023-07-13T11:06:43;23.80;63.20
46898;DHT22;32646;50.958;6.258;2023-07-13T11:09:32;24.80;58.30
46898;DHT22;32646;50.958;6.258;2023-07-13T11:12:07;24.40;58.20
46898;DHT22;32646;50.958;6.258;2023-07-13T11:14:42;24.30;55.50
46898;DHT22;32646;50.958;6.258;2023-07-13T11:17:35;24.20;59.20
46898;DHT22;32646;50.958;6.258;2023-07-13T11:25:21;23.40;60.20
46898;DHT22;32646;50.958;6.258;2023-07-13T11:33:18;24.50;58.00
46898;DHT22;32646;50.958;6.258;2023-07-13T11:36:04;24.70;57.10
46898;DHT22;32646;50.958;6.258;2023-07-13T11:41:11;24.80;54.90
46898;DHT22;32646;50.958;6.258;2023-07-13T11:43:43;24.90;53.10
46898;DHT22;32646;50.958;6.258;2023-07-13T11:46:21;25.20;57.80
46898;DHT22;32646;50.958;6.258;2023-07-13T11:48:49;25.20;51.70
46898;DHT22;32646;50.958;6.258;2023-07-13T11:51:23;25.10;54.80
46898;DHT22;32646;50.958;6.258;2023-07-13T11:53:52;24.60;55.80
46898;DHT22;32646;50.958;6.258;2023-07-13T11:56:24;24.70;55.80
46898;DHT22;32646;50.958;6.258;2023-07-13T11:58:54;25.00;51.30
46898;DHT22;32646;50.958;6.258;2023-07-13T12:01:24;24.20;54.30
46898;DHT22;32646;50.958;6.258;2023-07-13T12:03:53;24.20;57.90
46898;DHT22;32646;50.958;6.258;2023-07-13T12:06:31;24.40;52.20
46898;DHT22;32646;50.958;6.258;2023-07-13T12:09:03;24.00;52.70
46898;DHT22;32646;50.958;6.258;2023-07-13T12:11:35;23.90;55.20
46898;DHT22;32646;50.958;6.258;2023-07-13T12:14:14;23.80;55.50
46898;DHT22;32646;50.958;6.258;2023-07-13T12:16:43;23.90;60.30
46898;DHT22;32646;50.958;6.258;2023-07-13T12:19:18;24.60;57.40
46898;DHT22;32646;50.958;6.258;2023-07-13T12:21:46;24.40;54.50
46898;DHT22;32646;50.958;6.258;2023-07-13T12:24:21;23.70;53.20
46898;DHT22;32646;50.958;6.258;2023-07-13T12:27:13;24.20;54.20
46898;DHT22;32646;50.958;6.258;2023-07-13T12:29:50;24.80;50.50
46898;DHT22;32646;50.958;6.258;2023-07-13T12:32:17;24.60;50.70
46898;DHT22;32646;50.958;6.258;2023-07-13T12:34:57;24.40;51.20
46898;DHT22;32646;50.958;6.258;2023-07-13T12:37:27;23.90;50.40
46898;DHT22;32646;50.958;6.258;2023-07-13T12:39:54;23.20;53.00
46898;DHT22;32646;50.958;6.258;2023-07-13T12:42:28;23.70;54.40
46898;DHT22;32646;50.958;6.258;2023-07-13T12:45:02;24.30;48.10
46898;DHT22;32646;50.958;6.258;2023-07-13T12:47:31;24.40;47.00
46898;DHT22;32646;50.958;6.258;2023-07-13T12:50:17;25.20;51.10
46898;DHT22;32646;50.958;6.258;2023-07-13T12:52:50;25.30;48.20
46898;DHT22;32646;50.958;6.258;2023-07-13T12:55:19;25.60;49.90
46898;DHT22;32646;50.958;6.258;2023-07-13T12:57:54;25.90;48.40
46898;DHT22;32646;50.958;6.258;2023-07-13T13:02:57;25.60;46.80
46898;DHT22;32646;50.958;6.258;2023-07-13T13:05:41;25.90;48.40
46898;DHT22;32646;50.958;6.258;2023-07-13T13:08:10;26.00;47.20
46898;DHT22;32646;50.958;6.258;2023-07-13T13:10:37;25.90;46.40
46898;DHT22;32646;50.958;6.258;2023-07-13T13:13:04;26.00;47.80
46898;DHT22;32646;50.958;6.258;2023-07-13T13:15:31;25.60;46.70
46898;DHT22;32646;50.958;6.258;2023-07-13T13:17:58;25.90;51.60
46898;DHT22;32646;50.958;6.258;2023-07-13T13:20:25;25.20;47.60
46898;DHT22;32646;50.958;6.258;2023-07-13T13:22:51;25.60;48.10
46898;DHT22;32646;50.958;6.258;2023-07-13T13:25:18;26.00;46.90
46898;DHT22;32646;50.958;6.258;2023-07-13T13:27:45;25.10;46.90
46898;DHT22;32646;50.958;6.258;2023-07-13T13:30:14;25.50;49.00
46898;DHT22;32646;50.958;6.258;2023-07-13T13:32:41;25.90;48.00
46898;DHT22;32646;50.958;6.258;2023-07-13T13:35:19;25.20;46.60
46898;DHT22;32646;50.958;6.258;2023-07-13T13:37:47;25.10;47.00
46898;DHT22;32646;50.958;6.258;2023-07-13T13:40:15;25.30;48.20
46898;DHT22;32646;50.958;6.258;2023-07-13T13:42:42;25.00;46.30
46898;DHT22;32646;50.958;6.258;2023-07-13T13:45:12;24.80;47.40
46898;DHT22;32646;50.958;6.258;2023-07-13T13:47:39;25.20;48.50
46898;DHT22;32646;50.958;6.258;2023-07-13T13:50:16;25.00;45.30
46898;DHT22;32646;50.958;6.258;2023-07-13T13:52:44;24.80;46.70
46898;DHT22;32646;50.958;6.258;2023-07-13T13:57:40;24.10;50.60
46898;DHT22;32646;50.958;6.258;2023-07-13T14:00:11;24.70;50.00
46898;DHT22;32646;50.958;6.258;2023-07-13T14:02:38;25.00;47.30
46898;DHT22;32646;50.958;6.258;2023-07-13T14:05:06;25.10;48.30
46898;DHT22;32646;50.958;6.258;2023-07-13T14:07:36;24.70;46.60
46898;DHT22;32646;50.958;6.258;2023-07-13T14:10:11;24.30;49.30
46898;DHT22;32646;50.958;6.258;2023-07-13T14:12:38;24.40;48.60
46898;DHT22;32646;50.958;6.258;2023-07-13T14:15:06;24.20;51.80
46898;DHT22;32646;50.958;6.258;2023-07-13T14:17:32;24.00;46.80
46898;DHT22;32646;50.958;6.258;2023-07-13T14:20:03;23.60;49.90
46898;DHT22;32646;50.958;6.258;2023-07-13T14:22:29;23.60;51.00
46898;DHT22;32646;50.958;6.258;2023-07-13T14:24:56;23.50;48.80
46898;DHT22;32646;50.958;6.258;2023-07-13T14:27:22;23.50;49.00
46898;DHT22;32646;50.958;6.258;2023-07-13T14:29:50;23.60;49.10
46898;DHT22;32646;50.958;6.258;2023-07-13T14:32:17;23.60;50.40
46898;DHT22;32646;50.958;6.258;2023-07-13T14:34:44;23.50;48.60
46898;DHT22;32646;50.958;6.258;2023-07-13T14:37:13;23.60;49.40
46898;DHT22;32646;50.958;6.258;2023-07-13T14:39:43;23.60;50.60
46898;DHT22;32646;50.958;6.258;2023-07-13T14:42:10;23.50;50.70
46898;DHT22;32646;50.958;6.258;2023-07-13T14:44:38;23.20;52.00
46898;DHT22;32646;50.958;6.258;2023-07-13T14:47:05;22.90;52.60
46898;DHT22;32646;50.958;6.258;2023-07-13T14:49:36;22.90;53.00
46898;DHT22;32646;50.958;6.258;2023-07-13T14:52:13;22.80;54.40
46898;DHT22;32646;50.958;6.258;2023-07-13T14:54:41;22.30;58.10
46898;DHT22;32646;50.958;6.258;2023-07-13T14:57:15;22.30;60.30
46898;DHT22;32646;50.958;6.258;2023-07-13T14:59:42;22.20;61.00
46898;DHT22;32646;50.958;6.258;2023-07-13T15:02:17;21.80;64.10
46898;DHT22;32646;50.958;6.258;2023-07-13T15:04:45;21.70;65.40
46898;DHT22;32646;50.958;6.258;2023-07-13T15:07:11;21.60;66.40
46898;DHT22;32646;50.958;6.258;2023-07-13T15:09:38;21.50;67.30
46898;DHT22;32646;50.958;6.258;2023-07-13T15:12:05;21.40;66.70
46898;DHT22;32646;50.958;6.258;2023-07-13T15:14:32;21.20;68.80
46898;DHT22;32646;50.958;6.258;2023-07-13T15:16:59;21.10;68.90
46898;DHT22;32646;50.958;6.258;2023-07-13T15:19:26;21.00;71.30
46898;DHT22;32646;50.958;6.258;2023-07-13T15:21:55;20.80;73.90
46898;DHT22;32646;50.958;6.258;2023-07-13T15:24:22;20.90;73.40
46898;DHT22;32646;50.958;6.258;2023-07-13T15:26:48;20.80;75.30
46898;DHT22;32646;50.958;6.258;2023-07-13T15:29:16;20.60;73.90
46898;DHT22;32646;50.958;6.258;2023-07-13T15:31:43;20.50;74.50
46898;DHT22;32646;50.958;6.258;2023-07-13T15:34:12;20.40;76.80
46898;DHT22;32646;50.958;6.258;2023-07-13T15:36:39;20.30;75.10
46898;DHT22;32646;50.958;6.258;2023-07-13T15:39:06;20.20;77.60
46898;DHT22;32646;50.958;6.258;2023-07-13T15:41:33;20.20;78.10
46898;DHT22;32646;50.958;6.258;2023-07-13T15:44:00;20.10;79.70
46898;DHT22;32646;50.958;6.258;2023-07-13T15:46:31;19.90;80.90
46898;DHT22;32646;50.958;6.258;2023-07-13T15:48:58;20.00;82.60
46898;DHT22;32646;50.958;6.258;2023-07-13T15:51:27;20.10;82.20
46898;DHT22;32646;50.958;6.258;2023-07-13T15:53:59;20.10;79.70
46898;DHT22;32646;50.958;6.258;2023-07-13T15:56:28;20.10;79.50
46898;DHT22;32646;50.958;6.258;2023-07-13T15:58:56;20.30;79.10
46898;DHT22;32646;50.958;6.258;2023-07-13T16:01:23;20.30;79.00
46898;DHT22;32646;50.958;6.258;2023-07-13T16:03:51;20.40;80.70
46898;DHT22;32646;50.958;6.258;2023-07-13T16:06:27;20.40;79.10
46898;DHT22;32646;50.958;6.258;2023-07-13T16:08:54;20.50;80.80
46898;DHT22;32646;50.958;6.258;2023-07-13T16:11:24;20.60;77.60
46898;DHT22;32646;50.958;6.258;2023-07-13T16:13:52;20.80;81.60
46898;DHT22;32646;50.958;6.258;2023-07-13T16:16:19;21.00;74.20
46898;DHT22;32646;50.958;6.258;2023-07-13T16:18:45;21.20;73.10
46898;DHT22;32646;50.958;6.258;2023-07-13T16:21:13;21.50;75.70
46898;DHT22;32646;50.958;6.258;2023-07-13T16:23:42;22.00;74.00